sensor_id;sensor_type;location;lat;lon;timestamp;pressure;altitude;pressure_sealevel;temperature;humidity
40940;BME280;26666;50.156;7.700;2023-01-28T00:00:23;101410.44;;;4.58;99.75
40940;BME280;26666;50.156;7.700;2023-01-28T00:05:25;101411.22;;;4.60;97.61
40940;BME280;26666;50.156;7.700;2023-01-28T00:10:26;101405.78;;;4.65;98.11
40940;BME280;26666;50.156;7.700;2023-01-28T00:15:27;101411.16;;;4.62;100.00
40940;BME280;26666;50.156;7.700;2023-01-28T00:20:29;101409.22;;;4.46;98.45
40940;BME280;26666;50.156;7.700;2023-01-28T00:25:30;101408.28;;;4.47;100.00
40940;BME280;26666;50.156;7.700;2023-01-28T00:30:32;101403.97;;;4.46;99.46
40940;BME280;26666;50.156;7.700;2023-01-28T00:35:33;101404.75;;;4.48;100.00
40940;BME280;26666;50.156;7.700;2023-01-28T00:40:35;101408.09;;;4.52;100.00
40940;BME280;26666;50.156;7.700;2023-01-28T00:45:36;101408.59;;;4.40;99.94
40940;BME280;26666;50.156;7.700;2023-01-28T00:50:38;101399.84;;;4.41;100.00
40940;BME280;26666;50.156;7.700;2023-01-28T00:55:39;101403.66;;;4.33;100.00
40940;BME280;26666;50.156;7.700;2023-01-28T01:00:40;101399.91;;;4.39;100.00
40940;BME280;26666;50.156;7.700;2023-01-28T01:05:42;101402.94;;;4.50;99.06
40940;BME280;26666;50.156;7.700;2023-01-28T01:10:43;101403.03;;;4.47;99.98
40940;BME280;26666;50.156;7.700;2023-01-28T01:15:45;101403.66;;;4.54;98.73
40940;BME280;26666;50.156;7.700;2023-01-28T01:20:46;101403.31;;;4.41;99.76
40940;BME280;26666;50.156;7.700;2023-01-28T01:25:48;101407.25;;;4.51;100.00
40940;BME280;26666;50.156;7.700;2023-01-28T01:30:49;101416.91;;;4.49;98.91
40940;BME280;26666;50.156;7.700;2023-01-28T01:35:54;101415.75;;;4.15;97.00
40940;BME280;26666;50.156;7.700;2023-01-28T01:41:00;101416.28;;;4.44;95.05
40940;BME280;26666;50.156;7.700;2023-01-28T01:46:01;101420.78;;;4.41;93.56
40940;BME280;26666;50.156;7.700;2023-01-28T01:51:06;101423.03;;;4.50;91.20
40940;BME280;26666;50.156;7.700;2023-01-28T01:56:12;101420.72;;;4.63;93.93
40940;BME280;26666;50.156;7.700;2023-01-28T02:01:15;101418.13;;;4.42;94.97
40940;BME280;26666;50.156;7.700;2023-01-28T02:06:16;101414.78;;;4.39;95.14
40940;BME280;26666;50.156;7.700;2023-01-28T02:11:18;101409.81;;;4.32;95.46
40940;BME280;26666;50.156;7.700;2023-01-28T02:16:20;101415.63;;;4.39;94.97
40940;BME280;26666;50.156;7.700;2023-01-28T02:21:49;101411.16;;;4.41;94.56
40940;BME280;26666;50.156;7.700;2023-01-28T02:27:23;101411.16;;;4.41;94.54
40940;BME280;26666;50.156;7.700;2023-01-28T02:32:32;101421.38;;;4.47;92.79
40940;BME280;26666;50.156;7.700;2023-01-28T02:37:52;101418.38;;;4.36;91.63
40940;BME280;26666;50.156;7.700;2023-01-28T02:42:56;101411.44;;;4.35;94.16
40940;BME280;26666;50.156;7.700;2023-01-28T02:47:58;101416.00;;;4.30;93.10
40940;BME280;26666;50.156;7.700;2023-01-28T02:53:30;101414.91;;;4.35;95.59
40940;BME280;26666;50.156;7.700;2023-01-28T03:04:08;101433.69;;;4.25;93.20
40940;BME280;26666;50.156;7.700;2023-01-28T03:09:14;101436.22;;;4.26;92.67
40940;BME280;26666;50.156;7.700;2023-01-28T03:14:18;101448.84;;;4.17;99.19
40940;BME280;26666;50.156;7.700;2023-01-28T03:19:22;101447.66;;;4.03;91.51
40940;BME280;26666;50.156;7.700;2023-01-28T03:24:27;101454.28;;;4.32;91.08
40940;BME280;26666;50.156;7.700;2023-01-28T03:29:32;101458.84;;;4.07;88.82
40940;BME280;26666;50.156;7.700;2023-01-28T03:34:35;101463.56;;;4.19;88.47
40940;BME280;26666;50.156;7.700;2023-01-28T03:39:37;101460.63;;;4.27;91.46
40940;BME280;26666;50.156;7.700;2023-01-28T03:44:39;101469.53;;;4.23;89.89
40940;BME280;26666;50.156;7.700;2023-01-28T03:49:41;101472.91;;;4.25;90.58
40940;BME280;26666;50.156;7.700;2023-01-28T03:54:44;101469.25;;;4.29;92.27
40940;BME280;26666;50.156;7.700;2023-01-28T03:59:46;101478.28;;;4.22;91.40
40940;BME280;26666;50.156;7.700;2023-01-28T04:04:48;101488.63;;;4.25;90.58
40940;BME280;26666;50.156;7.700;2023-01-28T04:09:49;101489.66;;;4.21;90.77
40940;BME280;26666;50.156;7.700;2023-01-28T04:14:51;101497.34;;;4.03;89.32
40940;BME280;26666;50.156;7.700;2023-01-28T04:19:52;101485.78;;;4.09;91.28
40940;BME280;26666;50.156;7.700;2023-01-28T04:24:54;101488.31;;;3.88;88.69
40940;BME280;26666;50.156;7.700;2023-01-28T04:29:55;101479.69;;;4.08;89.92
40940;BME280;26666;50.156;7.700;2023-01-28T04:34:56;101491.06;;;4.07;90.84
40940;BME280;26666;50.156;7.700;2023-01-28T04:39:58;101489.28;;;4.08;88.94
40940;BME280;26666;50.156;7.700;2023-01-28T04:44:59;101493.75;;;4.06;89.48
40940;BME280;26666;50.156;7.700;2023-01-28T04:50:01;101493.75;;;4.06;93.91
40940;BME280;26666;50.156;7.700;2023-01-28T04:55:03;101494.97;;;3.97;89.91
40940;BME280;26666;50.156;7.700;2023-01-28T05:00:05;101493.34;;;3.93;95.21
40940;BME280;26666;50.156;7.700;2023-01-28T05:05:06;101498.72;;;3.90;93.40
40940;BME280;26666;50.156;7.700;2023-01-28T05:10:08;101507.81;;;4.03;93.78
40940;BME280;26666;50.156;7.700;2023-01-28T05:15:10;101501.44;;;4.31;91.92
40940;BME280;26666;50.156;7.700;2023-01-28T05:20:13;101503.94;;;4.12;92.97
40940;BME280;26666;50.156;7.700;2023-01-28T05:25:14;101509.31;;;4.09;92.45
40940;BME280;26666;50.156;7.700;2023-01-28T05:30:20;101513.94;;;4.02;94.38
40940;BME280;26666;50.156;7.700;2023-01-28T05:35:22;101513.13;;;4.00;92.56
40940;BME280;26666;50.156;7.700;2023-01-28T05:40:24;101516.78;;;3.96;94.72
40940;BME280;26666;50.156;7.700;2023-01-28T05:45:25;101520.38;;;3.93;93.70
40940;BME280;26666;50.156;7.700;2023-01-28T05:50:27;101541.34;;;3.92;93.23
40940;BME280;26666;50.156;7.700;2023-01-28T05:55:28;101537.81;;;3.93;95.25
40940;BME280;26666;50.156;7.700;2023-01-28T06:00:30;101545.09;;;3.85;97.00
40940;BME280;26666;50.156;7.700;2023-01-28T06:05:31;101556.50;;;3.84;97.45
40940;BME280;26666;50.156;7.700;2023-01-28T06:10:33;101558.22;;;3.83;98.89
40940;BME280;26666;50.156;7.700;2023-01-28T06:15:34;101546.47;;;3.95;97.25
40940;BME280;26666;50.156;7.700;2023-01-28T06:20:35;101548.66;;;3.84;95.48
40940;BME280;26666;50.156;7.700;2023-01-28T06:25:37;101552.91;;;3.86;96.36
40940;BME280;26666;50.156;7.700;2023-01-28T06:30:38;101555.84;;;3.77;98.70
40940;BME280;26666;50.156;7.700;2023-01-28T06:35:40;101568.94;;;3.77;98.58
40940;BME280;26666;50.156;7.700;2023-01-28T06:40:41;101567.09;;;3.79;99.83
40940;BME280;26666;50.156;7.700;2023-01-28T06:45:43;101564.78;;;3.71;100.00
40940;BME280;26666;50.156;7.700;2023-01-28T06:50:48;101571.63;;;3.75;100.00
40940;BME280;26666;50.156;7.700;2023-01-28T06:55:49;101575.94;;;3.77;100.00
40940;BME280;26666;50.156;7.700;2023-01-28T07:00:52;101579.66;;;3.69;100.00
40940;BME280;26666;50.156;7.700;2023-01-28T07:05:53;101593.09;;;3.60;100.00
40940;BME280;26666;50.156;7.700;2023-01-28T07:10:55;101599.91;;;3.64;100.00
40940;BME280;26666;50.156;7.700;2023-01-28T07:15:56;101603.84;;;3.52;100.00
40940;BME280;26666;50.156;7.700;2023-01-28T07:20:58;101600.66;;;3.68;100.00
40940;BME280;26666;50.156;7.700;2023-01-28T07:26:01;101608.09;;;3.55;100.00
40940;BME280;26666;50.156;7.700;2023-01-28T07:31:03;101603.78;;;3.78;99.70
40940;BME280;26666;50.156;7.700;2023-01-28T07:36:05;101604.75;;;3.75;99.80
40940;BME280;26666;50.156;7.700;2023-01-28T07:41:07;101598.66;;;3.74;100.00
40940;BME280;26666;50.156;7.700;2023-01-28T07:46:08;101608.56;;;3.66;100.00
40940;BME280;26666;50.156;7.700;2023-01-28T07:51:10;101603.91;;;3.74;97.66
40940;BME280;26666;50.156;7.700;2023-01-28T07:56:12;101614.81;;;3.86;92.73
40940;BME280;26666;50.156;7.700;2023-01-28T08:01:13;101610.38;;;3.88;91.00
40940;BME280;26666;50.156;7.700;2023-01-28T08:06:15;101613.72;;;3.91;90.63
40940;BME280;26666;50.156;7.700;2023-01-28T08:11:16;101609.44;;;3.89;93.83
40940;BME280;26666;50.156;7.700;2023-01-28T08:16:18;101625.28;;;3.86;90.38
40940;BME280;26666;50.156;7.700;2023-01-28T08:21:23;101624.75;;;3.76;88.56
40940;BME280;26666;50.156;7.700;2023-01-28T08:26:24;101615.59;;;3.88;86.05
40940;BME280;26666;50.156;7.700;2023-01-28T08:31:26;101618.69;;;3.99;84.98
40940;BME280;26666;50.156;7.700;2023-01-28T08:36:28;101630.31;;;3.67;83.51
40940;BME280;26666;50.156;7.700;2023-01-28T08:41:30;101632.94;;;3.90;83.99
40940;BME280;26666;50.156;7.700;2023-01-28T08:46:31;101642.31;;;3.96;83.45
40940;BME280;26666;50.156;7.700;2023-01-28T08:51:33;101638.06;;;3.93;82.32
40940;BME280;26666;50.156;7.700;2023-01-28T08:56:34;101654.81;;;3.88;82.82
40940;BME280;26666;50.156;7.700;2023-01-28T09:01:36;101635.88;;;3.81;80.89
40940;BME280;26666;50.156;7.700;2023-01-28T09:06:38;101641.56;;;3.92;81.69
40940;BME280;26666;50.156;7.700;2023-01-28T09:11:40;101636.25;;;3.95;79.56
40940;BME280;26666;50.156;7.700;2023-01-28T09:16:41;101647.66;;;3.93;81.16
40940;BME280;26666;50.156;7.700;2023-01-28T09:21:43;101653.84;;;3.90;78.70
40940;BME280;26666;50.156;7.700;2023-01-28T09:26:44;101652.06;;;3.91;79.63
40940;BME280;26666;50.156;7.700;2023-01-28T09:31:46;101657.78;;;4.02;79.54
40940;BME280;26666;50.156;7.700;2023-01-28T09:36:47;101662.56;;;4.14;81.52
40940;BME280;26666;50.156;7.700;2023-01-28T09:47:08;101666.06;;;4.13;79.31
40940;BME280;26666;50.156;7.700;2023-01-28T09:52:14;101665.22;;;4.13;80.12
40940;BME280;26666;50.156;7.700;2023-01-28T09:57:21;101672.34;;;4.09;78.65
40940;BME280;26666;50.156;7.700;2023-01-28T10:02:30;101685.59;;;4.05;77.38
40940;BME280;26666;50.156;7.700;2023-01-28T10:07:56;101687.25;;;4.07;76.74
40940;BME280;26666;50.156;7.700;2023-01-28T10:13:16;101704.28;;;3.94;76.86
40940;BME280;26666;50.156;7.700;2023-01-28T10:18:47;101699.84;;;3.96;78.19
40940;BME280;26666;50.156;7.700;2023-01-28T10:23:57;101694.84;;;3.90;75.22
40940;BME280;26666;50.156;7.700;2023-01-28T10:29:08;101696.34;;;3.97;78.76
40940;BME280;26666;50.156;7.700;2023-01-28T10:34:11;101693.03;;;4.15;79.38
40940;BME280;26666;50.156;7.700;2023-01-28T10:39:14;101696.63;;;4.13;77.25
40940;BME280;26666;50.156;7.700;2023-01-28T10:44:23;101706.34;;;4.09;76.08
40940;BME280;26666;50.156;7.700;2023-01-28T10:49:29;101705.88;;;3.98;76.67
40940;BME280;26666;50.156;7.700;2023-01-28T10:54:31;101709.28;;;4.00;76.12
40940;BME280;26666;50.156;7.700;2023-01-28T10:59:35;101705.50;;;4.09;76.83
40940;BME280;26666;50.156;7.700;2023-01-28T11:04:36;101706.16;;;3.90;74.33
40940;BME280;26666;50.156;7.700;2023-01-28T11:09:45;101704.91;;;4.01;76.58
40940;BME280;26666;50.156;7.700;2023-01-28T11:14:54;101708.69;;;3.68;75.08
40940;BME280;26666;50.156;7.700;2023-01-28T11:20:10;101697.63;;;3.85;74.57
40940;BME280;26666;50.156;7.700;2023-01-28T11:25:17;101697.69;;;3.84;74.45
40940;BME280;26666;50.156;7.700;2023-01-28T11:30:25;101695.03;;;3.85;75.22
40940;BME280;26666;50.156;7.700;2023-01-28T11:35:29;101693.03;;;3.92;75.18
40940;BME280;26666;50.156;7.700;2023-01-28T11:40:31;101683.19;;;3.99;76.01
40940;BME280;26666;50.156;7.700;2023-01-28T11:45:40;101690.22;;;3.97;75.36
40940;BME280;26666;50.156;7.700;2023-01-28T11:51:02;101682.34;;;3.98;74.79
40940;BME280;26666;50.156;7.700;2023-01-28T11:56:14;101676.78;;;4.07;75.35
40940;BME280;26666;50.156;7.700;2023-01-28T12:01:50;101668.28;;;4.01;77.41
40940;BME280;26666;50.156;7.700;2023-01-28T12:07:08;101667.28;;;4.05;76.19
40940;BME280;26666;50.156;7.700;2023-01-28T12:12:36;101655.28;;;3.99;74.58
40940;BME280;26666;50.156;7.700;2023-01-28T12:18:02;101662.78;;;4.08;75.29
40940;BME280;26666;50.156;7.700;2023-01-28T12:23:34;101648.34;;;3.98;73.52
40940;BME280;26666;50.156;7.700;2023-01-28T12:39:51;101640.72;;;3.92;72.45
40940;BME280;26666;50.156;7.700;2023-01-28T12:45:01;101641.13;;;4.05;72.78
40940;BME280;26666;50.156;7.700;2023-01-28T12:50:15;101630.75;;;4.25;73.47
40940;BME280;26666;50.156;7.700;2023-01-28T13:00:35;101638.72;;;4.22;72.67
40940;BME280;26666;50.156;7.700;2023-01-28T13:05:45;101652.16;;;4.35;73.66
40940;BME280;26666;50.156;7.700;2023-01-28T13:10:49;101644.41;;;3.86;73.47
40940;BME280;26666;50.156;7.700;2023-01-28T13:15:51;101657.63;;;4.07;73.21
40940;BME280;26666;50.156;7.700;2023-01-28T13:20:53;101655.88;;;4.29;74.23
40940;BME280;26666;50.156;7.700;2023-01-28T13:25:56;101658.84;;;4.20;73.58
40940;BME280;26666;50.156;7.700;2023-01-28T13:31:14;101660.88;;;4.35;71.45
40940;BME280;26666;50.156;7.700;2023-01-28T13:36:38;101661.00;;;4.32;73.35
40940;BME280;26666;50.156;7.700;2023-01-28T13:41:48;101663.56;;;4.56;72.92
40940;BME280;26666;50.156;7.700;2023-01-28T13:46:52;101653.91;;;4.36;71.32
40940;BME280;26666;50.156;7.700;2023-01-28T13:52:16;101655.22;;;4.46;70.36
40940;BME280;26666;50.156;7.700;2023-01-28T14:08:22;101667.63;;;4.41;70.16
40940;BME280;26666;50.156;7.700;2023-01-28T14:13:41;101666.97;;;4.36;72.41
40940;BME280;26666;50.156;7.700;2023-01-28T14:18:49;101658.03;;;4.42;73.70
40940;BME280;26666;50.156;7.700;2023-01-28T14:23:57;101663.78;;;4.28;72.58
40940;BME280;26666;50.156;7.700;2023-01-28T14:29:16;101660.59;;;4.20;74.92
40940;BME280;26666;50.156;7.700;2023-01-28T14:34:26;101667.13;;;4.31;74.48
40940;BME280;26666;50.156;7.700;2023-01-28T14:39:31;101659.66;;;4.22;73.76
40940;BME280;26666;50.156;7.700;2023-01-28T14:44:39;101655.81;;;4.31;75.02
40940;BME280;26666;50.156;7.700;2023-01-28T15:00:30;101651.97;;;4.18;72.19
40940;BME280;26666;50.156;7.700;2023-01-28T15:05:32;101641.78;;;4.10;72.13
40940;BME280;26666;50.156;7.700;2023-01-28T15:10:36;101660.09;;;4.10;76.91
40940;BME280;26666;50.156;7.700;2023-01-28T15:15:40;101660.44;;;4.24;76.17
40940;BME280;26666;50.156;7.700;2023-01-28T15:20:50;101657.25;;;4.16;74.07
40940;BME280;26666;50.156;7.700;2023-01-28T15:25:53;101646.88;;;4.14;75.71
40940;BME280;26666;50.156;7.700;2023-01-28T15:30:56;101626.38;;;4.02;76.25
40940;BME280;26666;50.156;7.700;2023-01-28T15:35:58;101648.63;;;3.90;73.79
40940;BME280;26666;50.156;7.700;2023-01-28T15:41:01;101656.75;;;3.83;75.36
40940;BME280;26666;50.156;7.700;2023-01-28T15:46:08;101661.19;;;3.81;76.27
40940;BME280;26666;50.156;7.700;2023-01-28T15:51:25;101666.34;;;3.59;76.36
40940;BME280;26666;50.156;7.700;2023-01-28T15:56:29;101670.75;;;3.57;76.12
40940;BME280;26666;50.156;7.700;2023-01-28T16:01:30;101678.25;;;3.66;78.29
40940;BME280;26666;50.156;7.700;2023-01-28T16:06:36;101673.09;;;3.64;75.50
40940;BME280;26666;50.156;7.700;2023-01-28T16:11:39;101667.88;;;3.64;78.10
40940;BME280;26666;50.156;7.700;2023-01-28T16:16:45;101694.50;;;3.50;78.33
40940;BME280;26666;50.156;7.700;2023-01-28T16:21:48;101686.22;;;3.38;77.01
40940;BME280;26666;50.156;7.700;2023-01-28T16:27:00;101702.44;;;3.47;77.25
40940;BME280;26666;50.156;7.700;2023-01-28T16:32:02;101704.19;;;3.47;76.21
40940;BME280;26666;50.156;7.700;2023-01-28T16:37:07;101709.69;;;3.39;74.71
40940;BME280;26666;50.156;7.700;2023-01-28T16:42:09;101696.25;;;3.50;76.09
40940;BME280;26666;50.156;7.700;2023-01-28T16:47:11;101693.00;;;3.43;74.92
40940;BME280;26666;50.156;7.700;2023-01-28T16:52:13;101689.53;;;3.43;75.84
40940;BME280;26666;50.156;7.700;2023-01-28T16:57:17;101696.44;;;3.44;76.79
40940;BME280;26666;50.156;7.700;2023-01-28T17:02:21;101695.91;;;3.34;77.73
40940;BME280;26666;50.156;7.700;2023-01-28T17:07:25;101692.41;;;3.35;78.04
40940;BME280;26666;50.156;7.700;2023-01-28T17:12:26;101686.66;;;3.25;80.33
40940;BME280;26666;50.156;7.700;2023-01-28T17:17:28;101690.94;;;3.00;82.29
40940;BME280;26666;50.156;7.700;2023-01-28T17:22:30;101698.66;;;2.76;83.53
40940;BME280;26666;50.156;7.700;2023-01-28T17:27:31;101706.72;;;2.68;85.01
40940;BME280;26666;50.156;7.700;2023-01-28T17:32:33;101713.09;;;2.60;85.82
40940;BME280;26666;50.156;7.700;2023-01-28T17:37:35;101730.41;;;2.62;84.86
40940;BME280;26666;50.156;7.700;2023-01-28T17:42:36;101747.22;;;2.53;84.53
40940;BME280;26666;50.156;7.700;2023-01-28T17:47:38;101752.44;;;2.82;84.17
40940;BME280;26666;50.156;7.700;2023-01-28T17:52:39;101767.03;;;2.89;82.59
40940;BME280;26666;50.156;7.700;2023-01-28T17:57:43;101781.88;;;2.87;84.46
40940;BME280;26666;50.156;7.700;2023-01-28T18:02:48;101795.81;;;2.86;83.50
40940;BME280;26666;50.156;7.700;2023-01-28T18:07:49;101807.88;;;2.90;82.39
40940;BME280;26666;50.156;7.700;2023-01-28T18:12:51;101806.47;;;3.08;79.33
40940;BME280;26666;50.156;7.700;2023-01-28T18:17:53;101816.84;;;3.09;76.23
40940;BME280;26666;50.156;7.700;2023-01-28T18:22:54;101822.50;;;2.95;78.06
40940;BME280;26666;50.156;7.700;2023-01-28T18:27:56;101816.50;;;3.22;76.37
40940;BME280;26666;50.156;7.700;2023-01-28T18:32:57;101817.50;;;3.18;76.16
40940;BME280;26666;50.156;7.700;2023-01-28T18:37:58;101802.94;;;3.09;76.71
40940;BME280;26666;50.156;7.700;2023-01-28T18:43:00;101801.09;;;2.84;77.98
40940;BME280;26666;50.156;7.700;2023-01-28T18:48:01;101812.97;;;2.94;76.20
40940;BME280;26666;50.156;7.700;2023-01-28T18:53:03;101804.22;;;2.95;75.92
40940;BME280;26666;50.156;7.700;2023-01-28T18:58:04;101821.69;;;2.93;76.79
40940;BME280;26666;50.156;7.700;2023-01-28T19:03:06;101831.56;;;2.84;76.83
40940;BME280;26666;50.156;7.700;2023-01-28T19:08:07;101831.38;;;2.90;75.71
40940;BME280;26666;50.156;7.700;2023-01-28T19:13:09;101827.09;;;2.87;77.76
40940;BME280;26666;50.156;7.700;2023-01-28T19:18:10;101834.47;;;3.03;77.13
40940;BME280;26666;50.156;7.700;2023-01-28T19:23:12;101829.25;;;3.03;77.71
40940;BME280;26666;50.156;7.700;2023-01-28T19:28:14;101842.41;;;3.00;76.47
40940;BME280;26666;50.156;7.700;2023-01-28T19:33:15;101850.19;;;3.01;77.55
40940;BME280;26666;50.156;7.700;2023-01-28T19:38:17;101842.50;;;2.96;75.92
40940;BME280;26666;50.156;7.700;2023-01-28T19:43:19;101827.56;;;2.72;74.83
40940;BME280;26666;50.156;7.700;2023-01-28T19:48:20;101834.75;;;2.64;76.22
40940;BME280;26666;50.156;7.700;2023-01-28T19:53:22;101839.00;;;2.68;78.19
40940;BME280;26666;50.156;7.700;2023-01-28T19:58:24;101833.81;;;2.66;74.57
40940;BME280;26666;50.156;7.700;2023-01-28T20:03:26;101839.69;;;2.74;75.79
40940;BME280;26666;50.156;7.700;2023-01-28T20:08:28;101856.56;;;2.63;74.54
40940;BME280;26666;50.156;7.700;2023-01-28T20:13:30;101866.03;;;2.65;74.03
40940;BME280;26666;50.156;7.700;2023-01-28T20:18:33;101851.03;;;2.72;74.42
40940;BME280;26666;50.156;7.700;2023-01-28T20:23:34;101867.09;;;2.58;78.79
40940;BME280;26666;50.156;7.700;2023-01-28T20:28:36;101853.16;;;2.59;78.28
40940;BME280;26666;50.156;7.700;2023-01-28T20:33:38;101862.78;;;2.57;74.53
40940;BME280;26666;50.156;7.700;2023-01-28T20:38:42;101853.50;;;2.47;78.55
40940;BME280;26666;50.156;7.700;2023-01-28T20:43:45;101864.06;;;2.42;80.45
40940;BME280;26666;50.156;7.700;2023-01-28T20:48:47;101862.25;;;2.44;80.51
40940;BME280;26666;50.156;7.700;2023-01-28T20:53:49;101863.25;;;2.40;80.62
40940;BME280;26666;50.156;7.700;2023-01-28T20:58:56;101862.41;;;2.40;79.08
40940;BME280;26666;50.156;7.700;2023-01-28T21:03:58;101857.03;;;2.44;78.46
40940;BME280;26666;50.156;7.700;2023-01-28T21:09:00;101862.72;;;2.59;77.43
40940;BME280;26666;50.156;7.700;2023-01-28T21:14:01;101855.41;;;2.40;79.06
40940;BME280;26666;50.156;7.700;2023-01-28T21:19:03;101859.84;;;2.04;80.09
40940;BME280;26666;50.156;7.700;2023-01-28T21:24:04;101855.97;;;1.86;81.12
40940;BME280;26666;50.156;7.700;2023-01-28T21:29:06;101860.69;;;1.71;81.46
40940;BME280;26666;50.156;7.700;2023-01-28T21:34:08;101855.47;;;1.71;81.09
40940;BME280;26666;50.156;7.700;2023-01-28T21:39:09;101852.59;;;1.82;82.60
40940;BME280;26666;50.156;7.700;2023-01-28T21:44:11;101852.56;;;1.84;82.03
40940;BME280;26666;50.156;7.700;2023-01-28T21:49:12;101861.13;;;1.89;81.88
40940;BME280;26666;50.156;7.700;2023-01-28T21:54:16;101869.13;;;1.81;82.45
40940;BME280;26666;50.156;7.700;2023-01-28T21:59:18;101855.81;;;1.92;82.61
40940;BME280;26666;50.156;7.700;2023-01-28T22:04:21;101861.63;;;2.03;81.82
40940;BME280;26666;50.156;7.700;2023-01-28T22:09:22;101856.41;;;2.03;80.29
40940;BME280;26666;50.156;7.700;2023-01-28T22:14:24;101861.19;;;2.20;80.53
40940;BME280;26666;50.156;7.700;2023-01-28T22:19:26;101850.25;;;2.39;76.25
40940;BME280;26666;50.156;7.700;2023-01-28T22:24:28;101849.28;;;2.41;78.35
40940;BME280;26666;50.156;7.700;2023-01-28T22:29:30;101851.28;;;2.31;76.82
40940;BME280;26666;50.156;7.700;2023-01-28T22:34:31;101844.72;;;2.18;76.15
40940;BME280;26666;50.156;7.700;2023-01-28T22:39:33;101827.31;;;2.19;79.29
40940;BME280;26666;50.156;7.700;2023-01-28T22:44:34;101830.75;;;2.21;79.54
40940;BME280;26666;50.156;7.700;2023-01-28T22:49:36;101821.19;;;2.20;79.98
40940;BME280;26666;50.156;7.700;2023-01-28T22:54:37;101827.22;;;2.22;79.22
40940;BME280;26666;50.156;7.700;2023-01-28T22:59:39;101820.38;;;2.17;78.99
40940;BME280;26666;50.156;7.700;2023-01-28T23:04:46;101817.91;;;2.13;77.99
40940;BME280;26666;50.156;7.700;2023-01-28T23:09:47;101821.59;;;2.04;80.08
40940;BME280;26666;50.156;7.700;2023-01-28T23:14:49;101820.72;;;2.05;80.38
40940;BME280;26666;50.156;7.700;2023-01-28T23:19:50;101834.53;;;2.09;80.06
40940;BME280;26666;50.156;7.700;2023-01-28T23:24:55;101823.19;;;2.10;79.44
40940;BME280;26666;50.156;7.700;2023-01-28T23:29:56;101817.56;;;1.92;81.35
40940;BME280;26666;50.156;7.700;2023-01-28T23:34:58;101822.66;;;1.99;81.96
40940;BME280;26666;50.156;7.700;2023-01-28T23:39:59;101820.06;;;1.97;82.87
40940;BME280;26666;50.156;7.700;2023-01-28T23:45:01;101817.31;;;2.02;80.96
40940;BME280;26666;50.156;7.700;2023-01-28T23:50:03;101819.25;;;1.95;82.97
40940;BME280;26666;50.156;7.700;2023-01-28T23:55:04;101820.72;;;2.05;81.52
